sensor_id;sensor_type;location;lat;lon;timestamp;P1;durP1;ratioP1;P2;durP2;ratioP2
140;SDS011;65;48.778;9.160;2023-05-07T00:00:05;8.02;;;4.68;;
140;SDS011;65;48.778;9.160;2023-05-07T00:02:53;8.63;;;5.25;;
140;SDS011;65;48.778;9.160;2023-05-07T00:05:39;8.23;;;4.85;;
140;SDS011;65;48.778;9.160;2023-05-07T00:08:25;8.77;;;4.88;;
140;SDS011;65;48.778;9.160;2023-05-07T00:11:10;9.25;;;5.00;;
140;SDS011;65;48.778;9.160;2023-05-07T00:13:56;8.75;;;4.45;;
140;SDS011;65;48.778;9.160;2023-05-07T00:16:42;8.93;;;4.78;;
140;SDS011;65;48.778;9.160;2023-05-07T00:19:28;8.32;;;4.68;;
140;SDS011;65;48.778;9.160;2023-05-07T00:22:14;9.13;;;4.40;;
140;SDS011;65;48.778;9.160;2023-05-07T00:24:59;8.05;;;4.60;;
140;SDS011;65;48.778;9.160;2023-05-07T00:27:45;7.68;;;4.60;;
140;SDS011;65;48.778;9.160;2023-05-07T00:30:31;7.43;;;4.53;;
140;SDS011;65;48.778;9.160;2023-05-07T00:33:17;8.02;;;4.78;;
140;SDS011;65;48.778;9.160;2023-05-07T00:36:03;7.78;;;4.70;;
140;SDS011;65;48.778;9.160;2023-05-07T00:38:49;8.05;;;4.93;;
140;SDS011;65;48.778;9.160;2023-05-07T00:41:35;10.80;;;5.20;;
140;SDS011;65;48.778;9.160;2023-05-07T00:44:20;10.90;;;5.20;;
140;SDS011;65;48.778;9.160;2023-05-07T00:47:06;8.65;;;4.95;;
140;SDS011;65;48.778;9.160;2023-05-07T00:50:08;8.85;;;5.65;;
140;SDS011;65;48.778;9.160;2023-05-07T00:52:56;8.43;;;5.15;;
140;SDS011;65;48.778;9.160;2023-05-07T00:55:41;9.02;;;5.10;;
140;SDS011;65;48.778;9.160;2023-05-07T00:58:27;7.93;;;5.35;;
140;SDS011;65;48.778;9.160;2023-05-07T01:01:13;9.57;;;5.30;;
140;SDS011;65;48.778;9.160;2023-05-07T01:04:01;9.30;;;4.85;;
140;SDS011;65;48.778;9.160;2023-05-07T01:07:02;7.47;;;4.85;;
140;SDS011;65;48.778;9.160;2023-05-07T01:09:55;11.50;;;5.75;;
140;SDS011;65;48.778;9.160;2023-05-07T01:12:42;8.52;;;5.40;;
140;SDS011;65;48.778;9.160;2023-05-07T01:15:29;11.60;;;5.85;;
140;SDS011;65;48.778;9.160;2023-05-07T01:18:15;10.82;;;5.75;;
140;SDS011;65;48.778;9.160;2023-05-07T01:21:01;11.20;;;5.50;;
140;SDS011;65;48.778;9.160;2023-05-07T01:23:49;9.52;;;4.82;;
140;SDS011;65;48.778;9.160;2023-05-07T01:26:35;8.85;;;5.13;;
140;SDS011;65;48.778;9.160;2023-05-07T01:29:20;9.63;;;5.25;;
140;SDS011;65;48.778;9.160;2023-05-07T01:32:06;8.43;;;5.07;;
140;SDS011;65;48.778;9.160;2023-05-07T01:34:53;8.55;;;5.30;;
140;SDS011;65;48.778;9.160;2023-05-07T01:37:40;8.80;;;5.00;;
140;SDS011;65;48.778;9.160;2023-05-07T01:40:26;10.13;;;5.68;;
140;SDS011;65;48.778;9.160;2023-05-07T01:43:12;8.93;;;5.32;;
140;SDS011;65;48.778;9.160;2023-05-07T01:45:58;10.00;;;5.63;;
140;SDS011;65;48.778;9.160;2023-05-07T01:48:46;9.27;;;5.70;;
140;SDS011;65;48.778;9.160;2023-05-07T01:51:32;9.68;;;5.90;;
140;SDS011;65;48.778;9.160;2023-05-07T01:54:25;9.77;;;5.63;;
140;SDS011;65;48.778;9.160;2023-05-07T01:57:14;9.63;;;5.30;;
140;SDS011;65;48.778;9.160;2023-05-07T02:00:00;9.82;;;5.57;;
140;SDS011;65;48.778;9.160;2023-05-07T02:02:46;7.60;;;5.40;;
140;SDS011;65;48.778;9.160;2023-05-07T02:05:32;9.43;;;5.55;;
140;SDS011;65;48.778;9.160;2023-05-07T02:08:17;10.25;;;5.47;;
140;SDS011;65;48.778;9.160;2023-05-07T02:11:06;10.63;;;6.20;;
140;SDS011;65;48.778;9.160;2023-05-07T02:13:52;9.45;;;5.65;;
140;SDS011;65;48.778;9.160;2023-05-07T02:16:38;9.18;;;5.72;;
140;SDS011;65;48.778;9.160;2023-05-07T02:19:24;10.23;;;6.18;;
140;SDS011;65;48.778;9.160;2023-05-07T02:22:09;11.90;;;6.00;;
140;SDS011;65;48.778;9.160;2023-05-07T02:24:55;11.18;;;5.93;;
140;SDS011;65;48.778;9.160;2023-05-07T02:27:41;8.13;;;5.32;;
140;SDS011;65;48.778;9.160;2023-05-07T02:30:27;8.63;;;5.50;;
140;SDS011;65;48.778;9.160;2023-05-07T02:33:12;9.00;;;5.60;;
140;SDS011;65;48.778;9.160;2023-05-07T02:36:09;9.25;;;5.55;;
140;SDS011;65;48.778;9.160;2023-05-07T02:38:55;14.93;;;5.07;;
140;SDS011;65;48.778;9.160;2023-05-07T02:41:50;10.52;;;5.50;;
140;SDS011;65;48.778;9.160;2023-05-07T02:44:36;10.50;;;5.20;;
140;SDS011;65;48.778;9.160;2023-05-07T02:47:21;7.68;;;4.93;;
140;SDS011;65;48.778;9.160;2023-05-07T02:50:07;9.63;;;5.72;;
140;SDS011;65;48.778;9.160;2023-05-07T02:52:53;9.02;;;5.47;;
140;SDS011;65;48.778;9.160;2023-05-07T02:55:39;8.13;;;5.50;;
140;SDS011;65;48.778;9.160;2023-05-07T02:58:25;10.60;;;5.90;;
140;SDS011;65;48.778;9.160;2023-05-07T03:01:12;9.70;;;5.72;;
140;SDS011;65;48.778;9.160;2023-05-07T03:03:59;8.55;;;5.65;;
140;SDS011;65;48.778;9.160;2023-05-07T03:06:44;10.38;;;5.45;;
140;SDS011;65;48.778;9.160;2023-05-07T03:09:30;10.05;;;5.70;;
140;SDS011;65;48.778;9.160;2023-05-07T03:12:16;8.05;;;5.60;;
140;SDS011;65;48.778;9.160;2023-05-07T03:15:01;10.15;;;5.60;;
140;SDS011;65;48.778;9.160;2023-05-07T03:17:47;10.18;;;6.10;;
140;SDS011;65;48.778;9.160;2023-05-07T03:20:33;9.32;;;5.65;;
140;SDS011;65;48.778;9.160;2023-05-07T03:23:29;10.27;;;6.28;;
140;SDS011;65;48.778;9.160;2023-05-07T03:26:22;9.50;;;5.97;;
140;SDS011;65;48.778;9.160;2023-05-07T03:29:07;9.40;;;5.95;;
140;SDS011;65;48.778;9.160;2023-05-07T03:31:53;10.60;;;7.00;;
140;SDS011;65;48.778;9.160;2023-05-07T03:34:39;10.18;;;6.10;;
140;SDS011;65;48.778;9.160;2023-05-07T03:37:25;9.32;;;6.22;;
140;SDS011;65;48.778;9.160;2023-05-07T03:40:10;10.13;;;6.30;;
140;SDS011;65;48.778;9.160;2023-05-07T03:42:57;8.18;;;5.43;;
140;SDS011;65;48.778;9.160;2023-05-07T03:45:43;9.45;;;5.90;;
140;SDS011;65;48.778;9.160;2023-05-07T03:48:28;9.85;;;5.97;;
140;SDS011;65;48.778;9.160;2023-05-07T03:51:14;8.68;;;5.40;;
140;SDS011;65;48.778;9.160;2023-05-07T03:54:00;8.45;;;5.43;;
140;SDS011;65;48.778;9.160;2023-05-07T03:56:46;9.65;;;5.05;;
140;SDS011;65;48.778;9.160;2023-05-07T03:59:32;10.20;;;5.68;;
140;SDS011;65;48.778;9.160;2023-05-07T04:02:18;8.18;;;5.63;;
140;SDS011;65;48.778;9.160;2023-05-07T04:05:04;8.65;;;5.35;;
140;SDS011;65;48.778;9.160;2023-05-07T04:07:50;7.45;;;4.80;;
140;SDS011;65;48.778;9.160;2023-05-07T04:10:36;7.13;;;4.60;;
140;SDS011;65;48.778;9.160;2023-05-07T04:13:21;7.45;;;5.00;;
140;SDS011;65;48.778;9.160;2023-05-07T04:16:07;8.25;;;5.25;;
140;SDS011;65;48.778;9.160;2023-05-07T04:18:53;8.48;;;5.20;;
140;SDS011;65;48.778;9.160;2023-05-07T04:21:39;7.90;;;5.07;;
140;SDS011;65;48.778;9.160;2023-05-07T04:24:25;8.00;;;5.03;;
140;SDS011;65;48.778;9.160;2023-05-07T04:27:11;8.35;;;5.70;;
140;SDS011;65;48.778;9.160;2023-05-07T04:29:57;12.23;;;5.57;;
140;SDS011;65;48.778;9.160;2023-05-07T04:32:43;10.25;;;5.95;;
140;SDS011;65;48.778;9.160;2023-05-07T04:35:29;9.82;;;5.43;;
140;SDS011;65;48.778;9.160;2023-05-07T04:38:15;8.55;;;5.18;;
140;SDS011;65;48.778;9.160;2023-05-07T04:41:05;8.43;;;5.07;;
140;SDS011;65;48.778;9.160;2023-05-07T04:43:51;7.20;;;4.85;;
140;SDS011;65;48.778;9.160;2023-05-07T04:46:37;8.93;;;4.82;;
140;SDS011;65;48.778;9.160;2023-05-07T04:49:23;9.32;;;5.40;;
140;SDS011;65;48.778;9.160;2023-05-07T04:52:08;7.78;;;5.00;;
140;SDS011;65;48.778;9.160;2023-05-07T04:54:54;8.50;;;4.47;;
140;SDS011;65;48.778;9.160;2023-05-07T04:57:41;7.43;;;4.95;;
140;SDS011;65;48.778;9.160;2023-05-07T05:00:27;10.23;;;5.00;;
140;SDS011;65;48.778;9.160;2023-05-07T05:03:12;8.40;;;5.10;;
140;SDS011;65;48.778;9.160;2023-05-07T05:05:58;7.75;;;4.85;;
140;SDS011;65;48.778;9.160;2023-05-07T05:08:45;8.90;;;5.25;;
140;SDS011;65;48.778;9.160;2023-05-07T05:11:31;9.40;;;5.50;;
140;SDS011;65;48.778;9.160;2023-05-07T05:14:17;10.52;;;5.30;;
140;SDS011;65;48.778;9.160;2023-05-07T05:17:02;8.25;;;4.97;;
140;SDS011;65;48.778;9.160;2023-05-07T05:19:48;7.22;;;4.97;;
140;SDS011;65;48.778;9.160;2023-05-07T05:22:34;6.72;;;4.30;;
140;SDS011;65;48.778;9.160;2023-05-07T05:25:19;7.43;;;5.28;;
140;SDS011;65;48.778;9.160;2023-05-07T05:28:05;9.20;;;5.32;;
140;SDS011;65;48.778;9.160;2023-05-07T05:30:51;9.10;;;4.50;;
140;SDS011;65;48.778;9.160;2023-05-07T05:33:37;8.93;;;5.20;;
140;SDS011;65;48.778;9.160;2023-05-07T05:36:22;7.85;;;5.00;;
140;SDS011;65;48.778;9.160;2023-05-07T05:39:08;8.02;;;4.95;;
140;SDS011;65;48.778;9.160;2023-05-07T05:41:54;7.40;;;4.68;;
140;SDS011;65;48.778;9.160;2023-05-07T05:44:40;7.22;;;4.53;;
140;SDS011;65;48.778;9.160;2023-05-07T05:47:25;7.53;;;4.90;;
140;SDS011;65;48.778;9.160;2023-05-07T05:50:11;8.07;;;4.72;;
140;SDS011;65;48.778;9.160;2023-05-07T05:52:57;7.90;;;5.40;;
140;SDS011;65;48.778;9.160;2023-05-07T05:55:43;7.88;;;5.28;;
140;SDS011;65;48.778;9.160;2023-05-07T05:58:29;10.43;;;5.78;;
140;SDS011;65;48.778;9.160;2023-05-07T06:01:14;8.90;;;4.80;;
140;SDS011;65;48.778;9.160;2023-05-07T06:04:00;7.68;;;5.20;;
140;SDS011;65;48.778;9.160;2023-05-07T06:06:46;8.13;;;5.10;;
140;SDS011;65;48.778;9.160;2023-05-07T06:09:31;8.95;;;5.10;;
140;SDS011;65;48.778;9.160;2023-05-07T06:12:17;9.07;;;5.13;;
140;SDS011;65;48.778;9.160;2023-05-07T06:15:04;7.93;;;5.13;;
140;SDS011;65;48.778;9.160;2023-05-07T06:17:50;7.25;;;4.40;;
140;SDS011;65;48.778;9.160;2023-05-07T06:20:36;7.25;;;4.82;;
140;SDS011;65;48.778;9.160;2023-05-07T06:23:22;7.30;;;4.70;;
140;SDS011;65;48.778;9.160;2023-05-07T06:26:07;8.32;;;4.85;;
140;SDS011;65;48.778;9.160;2023-05-07T06:28:53;10.50;;;5.65;;
140;SDS011;65;48.778;9.160;2023-05-07T06:31:39;9.15;;;4.63;;
140;SDS011;65;48.778;9.160;2023-05-07T06:34:25;7.82;;;4.40;;
140;SDS011;65;48.778;9.160;2023-05-07T06:37:10;8.38;;;4.78;;
140;SDS011;65;48.778;9.160;2023-05-07T06:39:56;10.40;;;5.10;;
140;SDS011;65;48.778;9.160;2023-05-07T06:42:42;6.88;;;4.60;;
140;SDS011;65;48.778;9.160;2023-05-07T06:45:28;7.00;;;4.70;;
140;SDS011;65;48.778;9.160;2023-05-07T06:48:13;7.85;;;5.20;;
140;SDS011;65;48.778;9.160;2023-05-07T06:50:59;6.90;;;4.55;;
140;SDS011;65;48.778;9.160;2023-05-07T06:53:45;11.65;;;5.20;;
140;SDS011;65;48.778;9.160;2023-05-07T06:56:31;8.65;;;4.63;;
140;SDS011;65;48.778;9.160;2023-05-07T06:59:17;10.02;;;4.53;;
140;SDS011;65;48.778;9.160;2023-05-07T07:02:03;6.78;;;4.25;;
140;SDS011;65;48.778;9.160;2023-05-07T07:04:48;8.15;;;4.28;;
140;SDS011;65;48.778;9.160;2023-05-07T07:07:34;7.00;;;4.20;;
140;SDS011;65;48.778;9.160;2023-05-07T07:10:20;7.40;;;4.22;;
140;SDS011;65;48.778;9.160;2023-05-07T07:13:06;7.82;;;3.92;;
140;SDS011;65;48.778;9.160;2023-05-07T07:15:52;6.30;;;3.95;;
140;SDS011;65;48.778;9.160;2023-05-07T07:18:38;7.88;;;3.90;;
140;SDS011;65;48.778;9.160;2023-05-07T07:21:24;7.75;;;4.13;;
140;SDS011;65;48.778;9.160;2023-05-07T07:24:10;9.23;;;3.97;;
140;SDS011;65;48.778;9.160;2023-05-07T07:26:56;6.93;;;3.75;;
140;SDS011;65;48.778;9.160;2023-05-07T07:29:42;5.30;;;3.53;;
140;SDS011;65;48.778;9.160;2023-05-07T07:32:28;7.43;;;3.63;;
140;SDS011;65;48.778;9.160;2023-05-07T07:35:14;6.40;;;3.30;;
140;SDS011;65;48.778;9.160;2023-05-07T07:37:59;9.50;;;4.10;;
140;SDS011;65;48.778;9.160;2023-05-07T07:40:47;5.55;;;3.60;;
140;SDS011;65;48.778;9.160;2023-05-07T07:43:33;6.95;;;3.80;;
140;SDS011;65;48.778;9.160;2023-05-07T07:46:18;5.72;;;3.67;;
140;SDS011;65;48.778;9.160;2023-05-07T07:49:04;6.72;;;3.63;;
140;SDS011;65;48.778;9.160;2023-05-07T07:51:50;7.03;;;3.97;;
140;SDS011;65;48.778;9.160;2023-05-07T07:54:36;8.90;;;4.07;;
140;SDS011;65;48.778;9.160;2023-05-07T07:57:22;7.35;;;4.35;;
140;SDS011;65;48.778;9.160;2023-05-07T08:00:07;6.90;;;4.40;;
140;SDS011;65;48.778;9.160;2023-05-07T08:02:54;8.57;;;3.97;;
140;SDS011;65;48.778;9.160;2023-05-07T08:05:40;5.97;;;3.75;;
140;SDS011;65;48.778;9.160;2023-05-07T08:08:26;5.57;;;3.72;;
140;SDS011;65;48.778;9.160;2023-05-07T08:11:11;8.05;;;4.63;;
140;SDS011;65;48.778;9.160;2023-05-07T08:13:57;7.10;;;4.28;;
140;SDS011;65;48.778;9.160;2023-05-07T08:16:43;6.72;;;3.92;;
140;SDS011;65;48.778;9.160;2023-05-07T08:19:28;8.30;;;3.70;;
140;SDS011;65;48.778;9.160;2023-05-07T08:22:14;6.53;;;3.80;;
140;SDS011;65;48.778;9.160;2023-05-07T08:25:00;6.38;;;3.42;;
140;SDS011;65;48.778;9.160;2023-05-07T08:27:46;6.40;;;3.50;;
140;SDS011;65;48.778;9.160;2023-05-07T08:30:32;6.68;;;3.30;;
140;SDS011;65;48.778;9.160;2023-05-07T08:33:17;7.03;;;2.95;;
140;SDS011;65;48.778;9.160;2023-05-07T08:36:03;5.10;;;3.17;;
140;SDS011;65;48.778;9.160;2023-05-07T08:38:49;7.57;;;3.25;;
140;SDS011;65;48.778;9.160;2023-05-07T08:41:35;4.43;;;2.90;;
140;SDS011;65;48.778;9.160;2023-05-07T08:44:21;5.00;;;2.70;;
140;SDS011;65;48.778;9.160;2023-05-07T08:47:08;4.57;;;2.28;;
140;SDS011;65;48.778;9.160;2023-05-07T08:49:54;4.95;;;2.40;;
140;SDS011;65;48.778;9.160;2023-05-07T08:52:40;3.65;;;2.17;;
140;SDS011;65;48.778;9.160;2023-05-07T08:55:26;5.25;;;2.10;;
140;SDS011;65;48.778;9.160;2023-05-07T08:58:14;4.55;;;2.13;;
140;SDS011;65;48.778;9.160;2023-05-07T09:01:01;3.83;;;2.08;;
140;SDS011;65;48.778;9.160;2023-05-07T09:03:52;4.75;;;2.50;;
140;SDS011;65;48.778;9.160;2023-05-07T09:06:38;5.03;;;2.10;;
140;SDS011;65;48.778;9.160;2023-05-07T09:09:27;4.32;;;2.53;;
140;SDS011;65;48.778;9.160;2023-05-07T09:12:12;4.43;;;1.90;;
140;SDS011;65;48.778;9.160;2023-05-07T09:14:58;4.68;;;2.00;;
140;SDS011;65;48.778;9.160;2023-05-07T09:17:44;3.67;;;2.08;;
140;SDS011;65;48.778;9.160;2023-05-07T09:20:30;7.47;;;2.50;;
140;SDS011;65;48.778;9.160;2023-05-07T09:23:17;4.78;;;2.38;;
140;SDS011;65;48.778;9.160;2023-05-07T09:26:02;3.35;;;1.90;;
140;SDS011;65;48.778;9.160;2023-05-07T09:28:49;3.92;;;2.22;;
140;SDS011;65;48.778;9.160;2023-05-07T09:31:38;3.03;;;1.65;;
140;SDS011;65;48.778;9.160;2023-05-07T09:34:24;4.97;;;2.20;;
140;SDS011;65;48.778;9.160;2023-05-07T09:37:10;3.00;;;1.90;;
140;SDS011;65;48.778;9.160;2023-05-07T09:39:57;2.90;;;1.80;;
140;SDS011;65;48.778;9.160;2023-05-07T09:42:43;4.50;;;1.70;;
140;SDS011;65;48.778;9.160;2023-05-07T09:45:29;3.38;;;2.15;;
140;SDS011;65;48.778;9.160;2023-05-07T09:48:15;6.40;;;2.08;;
140;SDS011;65;48.778;9.160;2023-05-07T09:51:04;4.47;;;1.83;;
140;SDS011;65;48.778;9.160;2023-05-07T09:53:57;5.00;;;1.83;;
140;SDS011;65;48.778;9.160;2023-05-07T09:56:45;5.13;;;1.88;;
140;SDS011;65;48.778;9.160;2023-05-07T09:59:33;2.75;;;1.77;;
140;SDS011;65;48.778;9.160;2023-05-07T10:02:21;3.90;;;1.73;;
140;SDS011;65;48.778;9.160;2023-05-07T10:05:08;2.65;;;1.80;;
140;SDS011;65;48.778;9.160;2023-05-07T10:07:54;4.03;;;1.85;;
140;SDS011;65;48.778;9.160;2023-05-07T10:10:40;2.90;;;1.90;;
140;SDS011;65;48.778;9.160;2023-05-07T10:13:26;7.10;;;2.00;;
140;SDS011;65;48.778;9.160;2023-05-07T10:16:12;4.95;;;2.00;;
140;SDS011;65;48.778;9.160;2023-05-07T10:18:59;5.35;;;1.98;;
140;SDS011;65;48.778;9.160;2023-05-07T10:21:48;4.20;;;2.05;;
140;SDS011;65;48.778;9.160;2023-05-07T10:24:39;4.13;;;2.00;;
140;SDS011;65;48.778;9.160;2023-05-07T10:27:25;3.25;;;1.65;;
140;SDS011;65;48.778;9.160;2023-05-07T10:33:15;4.25;;;2.10;;
140;SDS011;65;48.778;9.160;2023-05-07T10:36:05;4.18;;;2.00;;
140;SDS011;65;48.778;9.160;2023-05-07T10:38:53;4.13;;;2.00;;
140;SDS011;65;48.778;9.160;2023-05-07T10:41:39;4.22;;;2.45;;
140;SDS011;65;48.778;9.160;2023-05-07T10:44:25;4.68;;;2.20;;
140;SDS011;65;48.778;9.160;2023-05-07T10:47:13;2.75;;;1.88;;
140;SDS011;65;48.778;9.160;2023-05-07T10:53:35;8.50;;;2.60;;
140;SDS011;65;48.778;9.160;2023-05-07T10:56:25;6.60;;;2.30;;
140;SDS011;65;48.778;9.160;2023-05-07T11:02:05;7.05;;;2.30;;
140;SDS011;65;48.778;9.160;2023-05-07T11:08:04;4.75;;;2.30;;
140;SDS011;65;48.778;9.160;2023-05-07T11:10:51;6.18;;;2.10;;
140;SDS011;65;48.778;9.160;2023-05-07T11:13:43;4.75;;;2.00;;
140;SDS011;65;48.778;9.160;2023-05-07T11:16:32;4.40;;;2.38;;
140;SDS011;65;48.778;9.160;2023-05-07T11:22:36;3.92;;;2.30;;
140;SDS011;65;48.778;9.160;2023-05-07T11:25:25;3.85;;;2.20;;
140;SDS011;65;48.778;9.160;2023-05-07T11:28:11;6.05;;;2.95;;
140;SDS011;65;48.778;9.160;2023-05-07T11:30:57;5.57;;;2.33;;
140;SDS011;65;48.778;9.160;2023-05-07T11:33:43;3.63;;;2.10;;
140;SDS011;65;48.778;9.160;2023-05-07T11:36:30;3.88;;;2.13;;
140;SDS011;65;48.778;9.160;2023-05-07T11:39:27;6.38;;;2.20;;
140;SDS011;65;48.778;9.160;2023-05-07T11:42:28;5.35;;;2.72;;
140;SDS011;65;48.778;9.160;2023-05-07T11:45:22;4.10;;;2.20;;
140;SDS011;65;48.778;9.160;2023-05-07T11:48:10;5.25;;;2.20;;
140;SDS011;65;48.778;9.160;2023-05-07T11:51:01;6.55;;;2.50;;
140;SDS011;65;48.778;9.160;2023-05-07T11:53:48;3.80;;;2.30;;
140;SDS011;65;48.778;9.160;2023-05-07T11:56:34;3.72;;;2.30;;
140;SDS011;65;48.778;9.160;2023-05-07T11:59:20;3.58;;;2.63;;
140;SDS011;65;48.778;9.160;2023-05-07T12:02:07;7.40;;;3.03;;
140;SDS011;65;48.778;9.160;2023-05-07T12:04:53;7.90;;;3.58;;
140;SDS011;65;48.778;9.160;2023-05-07T12:07:40;7.10;;;3.67;;
140;SDS011;65;48.778;9.160;2023-05-07T12:10:25;7.32;;;4.22;;
140;SDS011;65;48.778;9.160;2023-05-07T12:13:17;15.35;;;5.60;;
140;SDS011;65;48.778;9.160;2023-05-07T12:16:05;11.48;;;4.88;;
140;SDS011;65;48.778;9.160;2023-05-07T12:18:51;10.32;;;4.20;;
140;SDS011;65;48.778;9.160;2023-05-07T12:21:40;8.10;;;3.50;;
140;SDS011;65;48.778;9.160;2023-05-07T12:24:26;9.30;;;3.28;;
140;SDS011;65;48.778;9.160;2023-05-07T12:27:11;8.30;;;3.45;;
140;SDS011;65;48.778;9.160;2023-05-07T12:29:58;11.23;;;4.70;;
140;SDS011;65;48.778;9.160;2023-05-07T12:32:44;11.15;;;5.63;;
140;SDS011;65;48.778;9.160;2023-05-07T12:35:31;15.98;;;6.32;;
140;SDS011;65;48.778;9.160;2023-05-07T12:38:21;13.98;;;6.35;;
140;SDS011;65;48.778;9.160;2023-05-07T12:41:08;18.55;;;7.28;;
140;SDS011;65;48.778;9.160;2023-05-07T12:43:56;14.63;;;6.38;;
140;SDS011;65;48.778;9.160;2023-05-07T12:46:42;11.60;;;5.97;;
140;SDS011;65;48.778;9.160;2023-05-07T12:49:28;10.55;;;5.20;;
140;SDS011;65;48.778;9.160;2023-05-07T12:52:14;11.88;;;4.10;;
140;SDS011;65;48.778;9.160;2023-05-07T12:55:06;9.77;;;4.65;;
140;SDS011;65;48.778;9.160;2023-05-07T12:57:53;10.32;;;4.88;;
140;SDS011;65;48.778;9.160;2023-05-07T13:00:39;8.63;;;4.05;;
140;SDS011;65;48.778;9.160;2023-05-07T13:03:28;9.25;;;3.45;;
140;SDS011;65;48.778;9.160;2023-05-07T13:06:18;6.95;;;3.42;;
140;SDS011;65;48.778;9.160;2023-05-07T13:09:04;6.70;;;4.20;;
140;SDS011;65;48.778;9.160;2023-05-07T13:11:50;9.30;;;4.43;;
140;SDS011;65;48.778;9.160;2023-05-07T13:14:35;8.57;;;4.70;;
140;SDS011;65;48.778;9.160;2023-05-07T13:17:21;11.70;;;4.63;;
140;SDS011;65;48.778;9.160;2023-05-07T13:20:08;8.27;;;3.95;;
140;SDS011;65;48.778;9.160;2023-05-07T13:22:54;7.30;;;3.25;;
140;SDS011;65;48.778;9.160;2023-05-07T13:25:40;6.53;;;3.25;;
140;SDS011;65;48.778;9.160;2023-05-07T13:28:26;6.00;;;2.90;;
140;SDS011;65;48.778;9.160;2023-05-07T13:31:12;7.50;;;3.53;;
140;SDS011;65;48.778;9.160;2023-05-07T13:33:57;6.38;;;3.25;;
140;SDS011;65;48.778;9.160;2023-05-07T13:36:43;4.97;;;3.05;;
140;SDS011;65;48.778;9.160;2023-05-07T13:39:29;10.13;;;3.75;;
140;SDS011;65;48.778;9.160;2023-05-07T13:42:14;6.43;;;3.28;;
140;SDS011;65;48.778;9.160;2023-05-07T13:45:00;4.88;;;3.20;;
140;SDS011;65;48.778;9.160;2023-05-07T13:47:48;7.55;;;3.80;;
140;SDS011;65;48.778;9.160;2023-05-07T13:50:34;5.85;;;3.33;;
140;SDS011;65;48.778;9.160;2023-05-07T13:53:20;10.77;;;3.85;;
140;SDS011;65;48.778;9.160;2023-05-07T13:56:06;7.68;;;3.80;;
140;SDS011;65;48.778;9.160;2023-05-07T13:58:52;6.57;;;3.53;;
140;SDS011;65;48.778;9.160;2023-05-07T14:01:37;7.20;;;3.83;;
140;SDS011;65;48.778;9.160;2023-05-07T14:04:23;9.13;;;3.35;;
140;SDS011;65;48.778;9.160;2023-05-07T14:07:09;6.45;;;2.70;;
140;SDS011;65;48.778;9.160;2023-05-07T14:09:55;6.20;;;2.60;;
140;SDS011;65;48.778;9.160;2023-05-07T14:12:42;4.75;;;2.47;;
140;SDS011;65;48.778;9.160;2023-05-07T14:15:27;5.97;;;2.70;;
140;SDS011;65;48.778;9.160;2023-05-07T14:18:13;6.68;;;2.83;;
140;SDS011;65;48.778;9.160;2023-05-07T14:20:59;5.70;;;2.97;;
140;SDS011;65;48.778;9.160;2023-05-07T14:23:45;7.15;;;3.58;;
140;SDS011;65;48.778;9.160;2023-05-07T14:26:31;8.55;;;3.72;;
140;SDS011;65;48.778;9.160;2023-05-07T14:29:16;10.70;;;3.40;;
140;SDS011;65;48.778;9.160;2023-05-07T14:32:04;8.75;;;3.58;;
140;SDS011;65;48.778;9.160;2023-05-07T14:34:50;7.03;;;3.58;;
140;SDS011;65;48.778;9.160;2023-05-07T14:37:36;7.60;;;4.45;;
140;SDS011;65;48.778;9.160;2023-05-07T14:40:21;9.02;;;3.63;;
140;SDS011;65;48.778;9.160;2023-05-07T14:43:07;8.68;;;3.58;;
140;SDS011;65;48.778;9.160;2023-05-07T14:45:53;6.82;;;3.30;;
140;SDS011;65;48.778;9.160;2023-05-07T14:48:39;6.43;;;3.47;;
140;SDS011;65;48.778;9.160;2023-05-07T14:51:24;5.70;;;3.00;;
140;SDS011;65;48.778;9.160;2023-05-07T14:54:11;6.50;;;2.80;;
140;SDS011;65;48.778;9.160;2023-05-07T14:57:00;5.40;;;2.80;;
140;SDS011;65;48.778;9.160;2023-05-07T14:59:46;5.22;;;2.97;;
140;SDS011;65;48.778;9.160;2023-05-07T15:02:32;6.50;;;3.33;;
140;SDS011;65;48.778;9.160;2023-05-07T15:05:19;5.15;;;3.03;;
140;SDS011;65;48.778;9.160;2023-05-07T15:08:05;6.88;;;3.40;;
140;SDS011;65;48.778;9.160;2023-05-07T15:10:51;5.18;;;3.65;;
140;SDS011;65;48.778;9.160;2023-05-07T15:13:37;5.15;;;3.38;;
140;SDS011;65;48.778;9.160;2023-05-07T15:16:22;8.90;;;4.15;;
140;SDS011;65;48.778;9.160;2023-05-07T15:19:08;6.13;;;3.60;;
140;SDS011;65;48.778;9.160;2023-05-07T15:21:54;5.25;;;3.20;;
140;SDS011;65;48.778;9.160;2023-05-07T15:24:42;5.20;;;3.13;;
140;SDS011;65;48.778;9.160;2023-05-07T15:27:27;5.97;;;3.15;;
140;SDS011;65;48.778;9.160;2023-05-07T15:30:13;7.05;;;3.40;;
140;SDS011;65;48.778;9.160;2023-05-07T15:33:00;5.90;;;3.30;;
140;SDS011;65;48.778;9.160;2023-05-07T15:35:46;6.47;;;3.55;;
140;SDS011;65;48.778;9.160;2023-05-07T15:38:32;6.50;;;3.10;;
140;SDS011;65;48.778;9.160;2023-05-07T15:41:18;6.60;;;3.00;;
140;SDS011;65;48.778;9.160;2023-05-07T15:44:04;8.02;;;3.25;;
140;SDS011;65;48.778;9.160;2023-05-07T15:46:49;8.30;;;3.53;;
140;SDS011;65;48.778;9.160;2023-05-07T15:49:35;5.82;;;3.75;;
140;SDS011;65;48.778;9.160;2023-05-07T15:52:21;7.72;;;3.42;;
140;SDS011;65;48.778;9.160;2023-05-07T15:55:07;6.38;;;3.33;;
140;SDS011;65;48.778;9.160;2023-05-07T15:57:54;5.63;;;3.40;;
140;SDS011;65;48.778;9.160;2023-05-07T16:00:39;5.85;;;3.25;;
140;SDS011;65;48.778;9.160;2023-05-07T16:03:26;6.78;;;3.45;;
140;SDS011;65;48.778;9.160;2023-05-07T16:06:13;6.93;;;4.00;;
140;SDS011;65;48.778;9.160;2023-05-07T16:08:59;7.07;;;4.00;;
140;SDS011;65;48.778;9.160;2023-05-07T16:11:45;7.00;;;3.97;;
140;SDS011;65;48.778;9.160;2023-05-07T16:14:30;6.32;;;3.63;;
140;SDS011;65;48.778;9.160;2023-05-07T16:17:16;6.05;;;3.75;;
140;SDS011;65;48.778;9.160;2023-05-07T16:20:02;6.15;;;3.60;;
140;SDS011;65;48.778;9.160;2023-05-07T16:22:50;8.32;;;3.50;;
140;SDS011;65;48.778;9.160;2023-05-07T16:25:36;6.07;;;3.60;;
140;SDS011;65;48.778;9.160;2023-05-07T16:28:22;7.32;;;4.97;;
140;SDS011;65;48.778;9.160;2023-05-07T16:31:08;5.75;;;3.92;;
140;SDS011;65;48.778;9.160;2023-05-07T16:33:55;7.07;;;3.90;;
140;SDS011;65;48.778;9.160;2023-05-07T16:36:41;6.22;;;3.80;;
140;SDS011;65;48.778;9.160;2023-05-07T16:39:27;9.35;;;4.40;;
140;SDS011;65;48.778;9.160;2023-05-07T16:42:13;5.97;;;3.90;;
140;SDS011;65;48.778;9.160;2023-05-07T16:44:59;8.45;;;4.35;;
140;SDS011;65;48.778;9.160;2023-05-07T16:47:45;6.55;;;4.07;;
140;SDS011;65;48.778;9.160;2023-05-07T16:50:31;10.52;;;6.03;;
140;SDS011;65;48.778;9.160;2023-05-07T16:53:16;10.55;;;4.80;;
140;SDS011;65;48.778;9.160;2023-05-07T16:56:03;7.85;;;5.10;;
140;SDS011;65;48.778;9.160;2023-05-07T16:58:50;7.50;;;4.65;;
140;SDS011;65;48.778;9.160;2023-05-07T17:01:35;7.72;;;5.32;;
140;SDS011;65;48.778;9.160;2023-05-07T17:04:22;8.70;;;5.28;;
140;SDS011;65;48.778;9.160;2023-05-07T17:07:07;9.50;;;5.10;;
140;SDS011;65;48.778;9.160;2023-05-07T17:09:53;10.18;;;5.30;;
140;SDS011;65;48.778;9.160;2023-05-07T17:12:39;8.15;;;5.47;;
140;SDS011;65;48.778;9.160;2023-05-07T17:15:25;8.63;;;5.30;;
140;SDS011;65;48.778;9.160;2023-05-07T17:18:11;7.63;;;5.30;;
140;SDS011;65;48.778;9.160;2023-05-07T17:20:56;7.70;;;4.75;;
140;SDS011;65;48.778;9.160;2023-05-07T17:23:42;8.00;;;4.78;;
140;SDS011;65;48.778;9.160;2023-05-07T17:26:29;8.02;;;5.40;;
140;SDS011;65;48.778;9.160;2023-05-07T17:29:15;9.02;;;5.10;;
140;SDS011;65;48.778;9.160;2023-05-07T17:32:01;7.32;;;5.00;;
140;SDS011;65;48.778;9.160;2023-05-07T17:34:48;7.53;;;5.03;;
140;SDS011;65;48.778;9.160;2023-05-07T17:37:47;8.75;;;4.63;;
140;SDS011;65;48.778;9.160;2023-05-07T17:40:36;9.10;;;4.55;;
140;SDS011;65;48.778;9.160;2023-05-07T17:43:22;6.35;;;4.50;;
140;SDS011;65;48.778;9.160;2023-05-07T17:46:08;6.80;;;4.40;;
140;SDS011;65;48.778;9.160;2023-05-07T17:48:54;7.80;;;5.07;;
140;SDS011;65;48.778;9.160;2023-05-07T17:51:42;7.95;;;5.20;;
140;SDS011;65;48.778;9.160;2023-05-07T17:54:28;7.80;;;4.75;;
140;SDS011;65;48.778;9.160;2023-05-07T17:57:14;8.68;;;4.70;;
140;SDS011;65;48.778;9.160;2023-05-07T18:00:04;6.72;;;4.93;;
140;SDS011;65;48.778;9.160;2023-05-07T18:02:55;8.35;;;5.75;;
140;SDS011;65;48.778;9.160;2023-05-07T18:05:42;9.65;;;5.82;;
140;SDS011;65;48.778;9.160;2023-05-07T18:08:28;8.88;;;5.60;;
140;SDS011;65;48.778;9.160;2023-05-07T18:11:14;8.95;;;5.80;;
140;SDS011;65;48.778;9.160;2023-05-07T18:14:00;8.70;;;5.93;;
140;SDS011;65;48.778;9.160;2023-05-07T18:16:46;10.00;;;6.00;;
140;SDS011;65;48.778;9.160;2023-05-07T18:19:34;9.52;;;6.53;;